createdAt,value
2018-06-24T00:00:20.345Z,22
2018-06-24T00:01:10.736Z,22
2018-06-24T00:02:00.476Z,22
2018-06-24T00:02:50.577Z,22
2018-06-24T00:03:41.161Z,22
2018-06-24T00:04:31.201Z,22
2018-06-24T00:05:20.749Z,22.1
2018-06-24T00:06:11.116Z,22.1
2018-06-24T00:07:01.468Z,22
2018-06-24T00:07:50.708Z,22.1
2018-06-24T00:08:41.554Z,22.1
2018-06-24T00:09:31.085Z,22
2018-06-24T00:10:21.396Z,22
2018-06-24T00:11:11.708Z,22
2018-06-24T00:12:00.953Z,22.1
2018-06-24T00:12:51.558Z,22
2018-06-24T00:13:41.892Z,22
2018-06-24T00:14:31.179Z,22.1
2018-06-24T00:15:21.816Z,22.1
2018-06-24T00:16:11.554Z,22.1
2018-06-24T00:17:01.361Z,22.1
2018-06-24T00:17:51.685Z,22.1
2018-06-24T00:18:40.901Z,22
2018-06-24T00:19:31.256Z,22.1
2018-06-24T00:20:22.146Z,22
2018-06-24T00:21:11.632Z,22
2018-06-24T00:22:02.258Z,22.1
2018-06-24T00:22:51.204Z,22.1
2018-06-24T00:23:41.877Z,22.1
2018-06-24T00:24:32.165Z,22.1
2018-06-24T00:25:22.312Z,22
2018-06-24T00:26:12.322Z,22.1
2018-06-24T00:27:02.648Z,22.1
2018-06-24T00:27:52.696Z,22
2018-06-24T00:28:42.232Z,22.1
2018-06-24T00:29:32.900Z,22.1
2018-06-24T00:30:22.606Z,22
2018-06-24T00:31:12.532Z,22.1
2018-06-24T00:32:02.042Z,22.1
2018-06-24T00:32:52.058Z,22.1
2018-06-24T00:33:42.677Z,22.1
2018-06-24T00:34:32.699Z,22
2018-06-24T00:35:22.778Z,22
2018-06-24T00:36:13.411Z,22.1
2018-06-24T00:37:03.437Z,22.1
2018-06-24T00:37:53.489Z,22
2018-06-24T00:38:43.502Z,22
2018-06-24T00:39:33.559Z,22.1
2018-06-24T00:40:23.702Z,22.1
2018-06-24T00:41:13.702Z,22.1
2018-06-24T00:42:03.757Z,22.1
2018-06-24T00:42:53.872Z,22
2018-06-24T00:43:43.345Z,22
2018-06-24T00:44:33.408Z,22.1
2018-06-24T00:45:23.993Z,22.1
2018-06-24T00:46:13.859Z,22.1
2018-06-24T00:47:04.424Z,22.1
2018-06-24T00:47:54.506Z,22.1
2018-06-24T00:48:44.519Z,22.1
2018-06-24T00:49:34.324Z,22.1
2018-06-24T00:50:24.123Z,22.1
2018-06-24T00:51:14.138Z,22.1
2018-06-24T00:52:04.234Z,22
2018-06-24T00:52:54.845Z,22.1
2018-06-24T00:53:44.715Z,22
2018-06-24T00:54:34.173Z,22.1
2018-06-24T00:55:24.739Z,22.1
2018-06-24T00:56:14.877Z,22
2018-06-24T00:57:04.875Z,22.1
2018-06-24T00:57:54.975Z,22.1
2018-06-24T00:58:44.745Z,22.1
2018-06-24T00:59:34.762Z,22.1
2018-06-24T01:00:25.208Z,22.1
2018-06-24T01:01:15.472Z,22.1
2018-06-24T01:02:05.281Z,22.1
2018-06-24T01:02:54.795Z,22.1
2018-06-24T01:03:45.172Z,22.1
2018-06-24T01:04:34.925Z,22.1
2018-06-24T01:05:24.778Z,22.1
2018-06-24T01:06:15.107Z,22.1
2018-06-24T01:07:04.830Z,22.1
2018-06-24T01:07:55.746Z,22.1
2018-06-24T01:08:45.751Z,22.1
2018-06-24T01:09:35.559Z,22.1
2018-06-24T01:10:25.080Z,22.1
2018-06-24T01:11:15.474Z,22.1
2018-06-24T01:12:05.198Z,22.1
2018-06-24T01:12:56.125Z,22.1
2018-06-24T01:13:45.560Z,22.1
2018-06-24T01:14:36.185Z,22.1
2018-06-24T01:15:26.292Z,22.1
2018-06-24T01:16:15.779Z,22.1
2018-06-24T01:17:05.861Z,22
2018-06-24T01:17:56.470Z,22
2018-06-24T01:18:46.794Z,22.1
2018-06-24T01:19:36.639Z,22.1
2018-06-24T01:20:26.414Z,22
2018-06-24T01:21:16.696Z,22.1
2018-06-24T01:22:06.810Z,22
2018-06-24T01:22:56.825Z,22.1
2018-06-24T01:23:47.142Z,22
2018-06-24T01:24:37.219Z,22.1
2018-06-24T01:25:27.007Z,22.1
2018-06-24T01:26:16.789Z,22
2018-06-24T01:27:07.089Z,22.1
2018-06-24T01:27:57.246Z,22
2018-06-24T01:28:46.438Z,22
2018-06-24T01:29:37.338Z,22.1
2018-06-24T01:30:26.823Z,22
2018-06-24T01:31:16.639Z,22
2018-06-24T01:32:06.968Z,22.1
2018-06-24T01:32:57.344Z,22
2018-06-24T01:33:47.074Z,22
2018-06-24T01:34:37.997Z,22
2018-06-24T01:35:26.939Z,22
2018-06-24T01:36:17.558Z,22
2018-06-24T01:37:07.149Z,22
2018-06-24T01:37:57.426Z,22.1
2018-06-24T01:38:48.276Z,22.1
2018-06-24T01:39:37.801Z,22.1
2018-06-24T01:40:28.468Z,22
2018-06-24T01:41:18.528Z,22
2018-06-24T01:42:08.243Z,22.1
2018-06-24T01:42:58.574Z,22
2018-06-24T01:43:48.709Z,22
2018-06-24T01:44:38.465Z,22
2018-06-24T01:45:28.504Z,22.1
2018-06-24T01:46:18.854Z,22.1
2018-06-24T01:47:08.643Z,22
2018-06-24T01:47:58.964Z,22
2018-06-24T01:48:49.032Z,22
2018-06-24T01:49:38.593Z,22.1
2018-06-24T01:50:28.588Z,22
2018-06-24T01:51:19.112Z,22.1
2018-06-24T01:52:08.740Z,22.1
2018-06-24T01:52:58.211Z,22
2018-06-24T01:53:48.073Z,22
2018-06-24T01:54:38.676Z,22.1
2018-06-24T01:55:29.023Z,22.1
2018-06-24T01:56:19.642Z,22
2018-06-24T01:57:08.554Z,22
2018-06-24T01:57:59.187Z,22
2018-06-24T01:58:49.228Z,22
2018-06-24T01:59:39.051Z,22
2018-06-24T02:00:29.142Z,22
2018-06-24T02:01:19.119Z,22
2018-06-24T02:02:09.485Z,22
2018-06-24T02:03:00.165Z,22
2018-06-24T02:03:49.300Z,22
2018-06-24T02:04:39.426Z,22
2018-06-24T02:05:29.169Z,22
2018-06-24T02:06:20.105Z,22
2018-06-24T02:07:10.166Z,22
2018-06-24T02:07:59.356Z,22
2018-06-24T02:08:50.533Z,22
2018-06-24T02:09:40.012Z,22
2018-06-24T02:10:29.826Z,22
2018-06-24T02:11:19.880Z,22
2018-06-24T02:12:10.021Z,22
2018-06-24T02:13:00.068Z,22
2018-06-24T02:13:50.952Z,22
2018-06-24T02:14:41.014Z,22
2018-06-24T02:15:30.753Z,22
2018-06-24T02:16:21.116Z,22
2018-06-24T02:17:10.881Z,22
2018-06-24T02:18:01.180Z,22
2018-06-24T02:18:50.937Z,22
2018-06-24T02:19:41.063Z,22
2018-06-24T02:20:31.382Z,22
2018-06-24T02:21:20.638Z,22
2018-06-24T02:22:11.548Z,22
2018-06-24T02:23:00.801Z,22
2018-06-24T02:23:51.655Z,22
2018-06-24T02:24:40.911Z,22
2018-06-24T02:25:31.323Z,22
2018-06-24T02:26:21.584Z,22
2018-06-24T02:27:11.332Z,22
2018-06-24T02:28:01.420Z,22
2018-06-24T02:28:51.455Z,22
2018-06-24T02:29:41.561Z,22
2018-06-24T02:30:31.668Z,22
2018-06-24T02:31:21.938Z,22
2018-06-24T02:32:11.506Z,22
2018-06-24T02:33:01.778Z,22
2018-06-24T02:33:52.155Z,22
2018-06-24T02:34:41.636Z,22
2018-06-24T02:35:32.306Z,22
2018-06-24T02:36:22.078Z,22
2018-06-24T02:37:12.666Z,22
2018-06-24T02:38:01.611Z,22
2018-06-24T02:38:51.970Z,22
2018-06-24T02:39:42.263Z,22
2018-06-24T02:40:32.305Z,22
2018-06-24T02:41:21.847Z,22
2018-06-24T02:42:13.022Z,22
2018-06-24T02:43:03.086Z,22
2018-06-24T02:43:52.871Z,22
2018-06-24T02:44:43.184Z,22
2018-06-24T02:45:33.037Z,22
2018-06-24T02:46:23.352Z,22
2018-06-24T02:47:12.834Z,22
2018-06-24T02:48:02.943Z,22
2018-06-24T02:48:53.241Z,22
2018-06-24T02:49:43.606Z,22
2018-06-24T02:50:33.738Z,22
2018-06-24T02:51:22.356Z,22
2018-06-24T02:52:13.520Z,22
2018-06-24T02:53:02.487Z,22
2018-06-24T02:53:54.022Z,22
2018-06-24T02:54:43.179Z,22
2018-06-24T02:55:33.845Z,21.9
2018-06-24T02:56:24.097Z,22
2018-06-24T02:57:14.143Z,22
2018-06-24T02:58:03.657Z,22
2018-06-24T02:58:54.291Z,22
2018-06-24T02:59:43.848Z,22
2018-06-24T03:00:34.106Z,22
2018-06-24T03:01:23.634Z,22
2018-06-24T03:02:14.557Z,22
2018-06-24T03:03:03.794Z,22
2018-06-24T03:03:54.089Z,22
2018-06-24T03:04:43.592Z,22
2018-06-24T03:05:34.241Z,22
2018-06-24T03:06:24.068Z,22
2018-06-24T03:07:14.086Z,22
2018-06-24T03:08:04.765Z,22
2018-06-24T03:08:53.628Z,22
2018-06-24T03:09:44.558Z,22
2018-06-24T03:10:35.019Z,22
2018-06-24T03:11:24.403Z,22
2018-06-24T03:12:14.738Z,22
2018-06-24T03:13:05.097Z,22
2018-06-24T03:13:54.580Z,22
2018-06-24T03:14:44.971Z,22
2018-06-24T03:15:35.293Z,22
2018-06-24T03:16:24.777Z,22
2018-06-24T03:17:15.126Z,22
2018-06-24T03:18:05.166Z,22
2018-06-24T03:18:55.723Z,22
2018-06-24T03:19:45.876Z,22
2018-06-24T03:20:35.638Z,22
2018-06-24T03:21:25.172Z,22
2018-06-24T03:22:15.720Z,22
2018-06-24T03:23:05.030Z,21.9
2018-06-24T03:23:54.435Z,22
2018-06-24T03:24:45.372Z,22
2018-06-24T03:25:35.873Z,22
2018-06-24T03:26:25.474Z,22
2018-06-24T03:27:16.076Z,22
2018-06-24T03:28:06.171Z,22
2018-06-24T03:28:56.449Z,22
2018-06-24T03:29:45.163Z,22
2018-06-24T03:30:36.537Z,21.9
2018-06-24T03:31:26.142Z,21.9
2018-06-24T03:32:15.944Z,21.9
2018-06-24T03:33:06.853Z,21.8
2018-06-24T03:33:56.563Z,21.8
2018-06-24T03:34:46.904Z,21.7
2018-06-24T03:35:37.011Z,21.6
2018-06-24T03:36:26.890Z,21.6
2018-06-24T03:37:16.858Z,21.5
2018-06-24T03:38:07.174Z,21.4
2018-06-24T03:38:56.962Z,21.4
2018-06-24T03:39:47.285Z,21.4
2018-06-24T03:40:37.345Z,21.3
2018-06-24T03:41:27.148Z,21.3
2018-06-24T03:42:17.202Z,21.3
2018-06-24T03:43:07.564Z,21.3
2018-06-24T03:43:57.688Z,21.2
2018-06-24T03:44:46.816Z,21.2
2018-06-24T03:45:37.720Z,21.2
2018-06-24T03:46:26.965Z,21.2
2018-06-24T03:48:57.773Z,21.1
2018-06-24T03:49:47.575Z,21.1
2018-06-24T03:50:38.165Z,21.1
2018-06-24T03:51:27.621Z,21
2018-06-24T03:52:17.707Z,21
2018-06-24T03:53:08.074Z,21
2018-06-24T03:53:58.132Z,21
2018-06-24T03:54:47.312Z,21
2018-06-24T03:55:37.957Z,20.9
2018-06-24T03:56:27.745Z,20.9
2018-06-24T03:57:18.325Z,20.9
2018-06-24T03:58:09.306Z,20.9
2018-06-24T03:58:57.676Z,20.9
2018-06-24T03:59:48.788Z,20.9
2018-06-24T04:00:38.029Z,20.9
2018-06-24T04:01:28.364Z,20.9
2018-06-24T04:02:17.897Z,20.9
2018-06-24T04:03:08.765Z,20.9
2018-06-24T04:03:59.138Z,20.9
2018-06-24T04:04:49.928Z,20.9
2018-06-24T04:05:38.140Z,20.9
2018-06-24T04:06:27.960Z,20.9
2018-06-24T04:07:19.393Z,20.9
2018-06-24T04:08:09.512Z,20.9
2018-06-24T04:08:58.967Z,20.9
2018-06-24T04:09:49.591Z,20.9
2018-06-24T04:10:39.644Z,20.9
2018-06-24T04:11:29.445Z,20.9
2018-06-24T04:12:18.909Z,20.9
2018-06-24T04:13:08.401Z,20.9
2018-06-24T04:13:59.599Z,20.9
2018-06-24T04:14:49.104Z,20.9
2018-06-24T04:15:39.447Z,20.9
2018-06-24T04:16:29.530Z,20.9
2018-06-24T04:17:19.253Z,20.9
2018-06-24T04:18:09.397Z,20.9
2018-06-24T04:18:59.641Z,20.9
2018-06-24T04:19:49.766Z,20.9
2018-06-24T04:20:40.097Z,20.9
2018-06-24T04:21:30.431Z,20.9
2018-06-24T04:22:20.317Z,20.9
2018-06-24T04:23:09.728Z,20.9
2018-06-24T04:24:00.002Z,21
2018-06-24T04:24:49.842Z,21
2018-06-24T04:25:41.180Z,21
2018-06-24T04:26:29.173Z,21
2018-06-24T04:27:20.381Z,21
2018-06-24T04:28:10.179Z,21
2018-06-24T04:29:00.500Z,21.1
2018-06-24T04:29:50.562Z,21.1
2018-06-24T04:30:40.634Z,21.1
2018-06-24T04:31:30.416Z,21.1
2018-06-24T04:32:20.797Z,21.1
2018-06-24T04:33:10.285Z,21.1
2018-06-24T04:34:00.323Z,21.1
2018-06-24T04:34:50.897Z,21.1
2018-06-24T04:35:41.551Z,21.1
2018-06-24T04:36:30.695Z,21.1
2018-06-24T04:37:20.537Z,21.1
2018-06-24T04:38:11.130Z,21.1
2018-06-24T04:39:01.810Z,21.1
2018-06-24T04:39:51.851Z,21.1
2018-06-24T04:40:41.034Z,21.1
2018-06-24T04:41:31.370Z,21.1
2018-06-24T04:42:21.172Z,21.1
2018-06-24T04:43:10.988Z,21.1
2018-06-24T04:44:01.811Z,21.1
2018-06-24T04:44:52.206Z,21.1
2018-06-24T04:45:41.949Z,21.1
2018-06-24T04:46:32.018Z,21.1
2018-06-24T04:47:22.359Z,21.1
2018-06-24T04:48:12.195Z,21.1
2018-06-24T04:49:02.297Z,21.1
2018-06-24T04:49:52.561Z,21.1
2018-06-24T04:50:42.596Z,21.1
2018-06-24T04:51:32.219Z,21.1
2018-06-24T04:55:42.711Z,21.2
2018-06-24T04:57:22.829Z,21.2
2018-06-24T04:58:12.052Z,21.2
2018-06-24T04:59:03.221Z,21.2
2018-06-24T04:59:52.735Z,21.2
2018-06-24T05:00:43.102Z,21.2
2018-06-24T05:01:32.309Z,21.3
2018-06-24T05:02:22.414Z,21.3
2018-06-24T05:03:12.698Z,21.3
2018-06-24T05:04:03.060Z,21.3
2018-06-24T05:04:53.679Z,21.3
2018-06-24T05:05:43.582Z,21.3
2018-06-24T05:06:34.247Z,21.3
2018-06-24T05:07:23.851Z,21.3
2018-06-24T05:08:13.632Z,21.3
2018-06-24T05:09:03.159Z,21.3
2018-06-24T05:09:52.934Z,21.4
2018-06-24T05:10:44.100Z,21.3
2018-06-24T05:11:33.904Z,21.3
2018-06-24T05:12:24.208Z,21.4
2018-06-24T05:13:14.025Z,21.4
2018-06-24T05:14:03.328Z,21.4
2018-06-24T05:14:54.505Z,21.4
2018-06-24T05:15:44.526Z,21.4
2018-06-24T05:16:33.988Z,21.4
2018-06-24T05:17:23.778Z,21.4
2018-06-24T05:18:13.565Z,21.4
2018-06-24T05:19:03.336Z,21.4
2018-06-24T05:19:54.202Z,21.4
2018-06-24T05:20:44.872Z,21.4
2018-06-24T05:21:34.961Z,21.4
2018-06-24T05:22:24.436Z,21.4
2018-06-24T05:23:14.576Z,21.4
2018-06-24T05:24:04.860Z,21.4
2018-06-24T05:24:54.579Z,21.4
2018-06-24T05:25:45.185Z,21.4
2018-06-24T05:26:35.061Z,21.5
2018-06-24T05:27:24.783Z,21.5
2018-06-24T05:28:14.885Z,21.5
2018-06-24T05:29:04.707Z,21.5
2018-06-24T05:29:54.804Z,21.5
2018-06-24T05:30:44.848Z,21.5
2018-06-24T05:31:34.097Z,21.5
2018-06-24T05:32:24.949Z,21.5
2018-06-24T05:33:15.316Z,21.5
2018-06-24T05:34:05.403Z,21.5
2018-06-24T05:34:54.314Z,21.5
2018-06-24T05:35:45.949Z,21.6
2018-06-24T05:36:36.019Z,21.6
2018-06-24T05:37:25.296Z,21.6
2018-06-24T05:38:16.174Z,21.6
2018-06-24T05:39:06.215Z,21.6
2018-06-24T05:39:55.868Z,21.6
2018-06-24T05:40:46.094Z,21.6
2018-06-24T05:41:35.554Z,21.6
2018-06-24T05:42:26.506Z,21.6
2018-06-24T05:43:16.865Z,21.6
2018-06-24T05:44:05.756Z,21.6
2018-06-24T05:44:56.139Z,21.6
2018-06-24T05:45:46.843Z,21.6
2018-06-24T05:46:36.275Z,21.6
2018-06-24T05:47:26.867Z,21.6
2018-06-24T05:48:16.644Z,21.6
2018-06-24T05:49:06.718Z,21.6
2018-06-24T05:49:56.238Z,21.6
2018-06-24T05:50:47.162Z,21.6
2018-06-24T05:51:36.901Z,21.6
2018-06-24T05:52:26.432Z,21.6
2018-06-24T05:53:16.201Z,21.6
2018-06-24T05:54:07.088Z,21.6
2018-06-24T05:54:57.155Z,21.6
2018-06-24T05:55:46.916Z,21.6
2018-06-24T05:56:37.263Z,21.6
2018-06-24T05:57:27.095Z,21.6
2018-06-24T05:58:17.131Z,21.6
2018-06-24T05:59:07.170Z,21.6
2018-06-24T05:59:57.267Z,21.6
2018-06-24T06:00:47.848Z,21.7
2018-06-24T06:01:37.889Z,21.7
2018-06-24T06:02:28.007Z,21.7
2018-06-24T06:03:17.537Z,21.7
2018-06-24T06:04:07.602Z,21.7
2018-06-24T06:04:58.214Z,21.7
2018-06-24T06:05:47.516Z,21.7
2018-06-24T06:06:38.058Z,21.7
2018-06-24T06:07:28.123Z,21.7
2018-06-24T06:08:18.184Z,21.7
2018-06-24T06:09:08.520Z,21.7
2018-06-24T06:09:58.088Z,21.7
2018-06-24T06:10:48.489Z,21.7
2018-06-24T06:11:38.140Z,21.7
2018-06-24T06:12:28.466Z,21.7
2018-06-24T06:13:18.905Z,21.7
2018-06-24T06:14:08.644Z,21.7
2018-06-24T06:14:59.035Z,21.8
2018-06-24T06:15:48.712Z,21.8
2018-06-24T06:16:38.798Z,21.7
2018-06-24T06:17:29.069Z,21.8
2018-06-24T06:18:19.215Z,21.8
2018-06-24T06:19:08.900Z,21.8
2018-06-24T06:19:59.310Z,21.8
2018-06-24T06:20:49.106Z,21.8
2018-06-24T06:21:38.919Z,21.8
2018-06-24T06:22:29.474Z,21.8
2018-06-24T06:23:19.238Z,21.8
2018-06-24T06:24:09.441Z,21.8
2018-06-24T06:24:59.133Z,21.8
2018-06-24T06:25:49.741Z,21.8
2018-06-24T06:26:39.800Z,21.8
2018-06-24T06:27:29.579Z,21.8
2018-06-24T06:28:19.621Z,21.8
2018-06-24T06:29:09.441Z,21.8
2018-06-24T06:29:59.582Z,21.8
2018-06-24T06:30:49.828Z,21.8
2018-06-24T06:31:40.175Z,21.8
2018-06-24T06:32:29.698Z,21.8
2018-06-24T06:33:19.526Z,21.8
2018-06-24T06:34:09.532Z,21.8
2018-06-24T06:34:59.854Z,21.8
2018-06-24T06:35:49.921Z,21.8
2018-06-24T06:36:40.053Z,21.8
2018-06-24T06:37:30.091Z,21.8
2018-06-24T06:38:20.703Z,21.8
2018-06-24T06:39:09.390Z,21.8
2018-06-24T06:40:00.820Z,21.8
2018-06-24T06:40:50.650Z,21.8
2018-06-24T06:41:39.784Z,21.8
2018-06-24T06:42:30.442Z,21.8
2018-06-24T06:43:20.744Z,21.8
2018-06-24T06:44:10.561Z,21.8
2018-06-24T06:45:02.571Z,21.8
2018-06-24T06:45:52.986Z,21.8
2018-06-24T06:46:40.184Z,21.8
2018-06-24T06:47:31.148Z,21.8
2018-06-24T06:48:20.888Z,21.8
2018-06-24T06:49:11.510Z,21.8
2018-06-24T06:49:59.863Z,21.8
2018-06-24T06:50:51.645Z,21.8
2018-06-24T06:51:41.410Z,21.8
2018-06-24T06:52:30.931Z,21.8
2018-06-24T06:53:20.296Z,21.8
2018-06-24T06:54:11.055Z,21.8
2018-06-24T06:55:01.699Z,21.8
2018-06-24T06:55:50.925Z,21.8
2018-06-24T06:56:40.658Z,21.8
2018-06-24T06:57:30.897Z,21.8
2018-06-24T06:58:21.634Z,21.8
2018-06-24T06:59:11.413Z,21.8
2018-06-24T07:00:02.180Z,21.8
2018-06-24T07:00:52.387Z,21.8
2018-06-24T07:01:41.694Z,21.8
2018-06-24T07:02:32.226Z,21.8
2018-06-24T07:03:22.986Z,21.8
2018-06-24T07:04:12.619Z,21.8
2018-06-24T07:05:01.856Z,21.8
2018-06-24T07:05:53.495Z,21.7
2018-06-24T07:06:42.850Z,21.6
2018-06-24T07:07:32.929Z,21.6
2018-06-24T07:08:22.706Z,21.6
2018-06-24T07:09:12.460Z,21.5
2018-06-24T07:10:02.488Z,21.4
2018-06-24T07:10:52.316Z,21.4
2018-06-24T07:11:42.495Z,21.3
2018-06-24T07:12:32.501Z,21.2
2018-06-24T07:13:22.790Z,21.2
2018-06-24T07:15:02.913Z,21.1
2018-06-24T07:15:53.039Z,21.1
2018-06-24T07:16:42.778Z,21
2018-06-24T07:17:33.121Z,21
2018-06-24T07:18:22.449Z,20.9
2018-06-24T07:19:13.103Z,20.9
2018-06-24T07:20:03.009Z,20.9
2018-06-24T07:20:53.133Z,20.9
2018-06-24T07:21:43.770Z,20.9
2018-06-24T07:22:33.278Z,20.8
2018-06-24T07:23:22.148Z,20.8
2018-06-24T07:24:13.133Z,20.8
2018-06-24T07:25:03.131Z,20.8
2018-06-24T07:25:54.288Z,20.8
2018-06-24T07:26:43.508Z,20.8
2018-06-24T07:27:33.831Z,20.8
2018-06-24T07:28:24.458Z,20.8
2018-06-24T07:29:13.672Z,20.9
2018-06-24T07:30:04.408Z,20.9
2018-06-24T07:30:54.667Z,20.9
2018-06-24T07:31:44.436Z,20.9
2018-06-24T07:32:34.520Z,20.9
2018-06-24T07:33:25.211Z,20.9
2018-06-24T07:34:14.355Z,20.9
2018-06-24T07:35:04.446Z,20.9
2018-06-24T07:35:55.070Z,20.9
2018-06-24T07:36:44.798Z,21
2018-06-24T07:37:34.916Z,21
2018-06-24T07:38:24.653Z,21.1
2018-06-24T07:39:15.936Z,21.1
2018-06-24T07:40:04.844Z,21.1
2018-06-24T07:44:15.364Z,21.2
2018-06-24T07:49:15.486Z,21.1
2018-06-24T07:50:05.327Z,21.1
2018-06-24T07:50:55.605Z,21.1
2018-06-24T07:51:45.416Z,21
2018-06-24T07:52:36.296Z,21
2018-06-24T07:53:25.787Z,21
2018-06-24T07:54:16.414Z,20.9
2018-06-24T07:55:06.194Z,20.9
2018-06-24T07:55:56.516Z,20.9
2018-06-24T07:56:46.059Z,20.9
2018-06-24T07:57:36.780Z,20.9
2018-06-24T07:58:26.724Z,20.9
2018-06-24T07:59:16.800Z,20.9
2018-06-24T08:00:06.597Z,20.9
2018-06-24T08:00:56.926Z,20.9
2018-06-24T08:01:46.441Z,20.9
2018-06-24T08:02:36.216Z,21
2018-06-24T08:03:28.196Z,21
2018-06-24T08:04:16.708Z,20.9
2018-06-24T08:05:06.821Z,20.9
2018-06-24T08:05:57.291Z,20.9
2018-06-24T08:06:47.359Z,20.9
2018-06-24T08:07:37.152Z,20.9
2018-06-24T08:08:27.465Z,20.9
2018-06-24T08:09:15.887Z,20.9
2018-06-24T08:10:07.086Z,20.9
2018-06-24T08:10:57.403Z,20.9
2018-06-24T08:11:47.489Z,20.9
2018-06-24T08:12:37.811Z,20.9
2018-06-24T08:13:27.470Z,20.9
2018-06-24T08:14:17.356Z,20.9
2018-06-24T08:15:08.016Z,20.9
2018-06-24T08:15:56.936Z,20.9
2018-06-24T08:16:47.582Z,20.8
2018-06-24T08:17:37.666Z,20.8
2018-06-24T08:18:28.225Z,20.8
2018-06-24T08:19:17.762Z,20.8
2018-06-24T08:20:07.876Z,20.9
2018-06-24T08:20:58.152Z,20.9
2018-06-24T08:21:48.493Z,20.9
2018-06-24T08:22:38.039Z,20.9
2018-06-24T08:23:28.067Z,20.9
2018-06-24T08:24:18.431Z,20.9
2018-06-24T08:25:08.230Z,20.9
2018-06-24T08:25:58.251Z,20.9
2018-06-24T08:26:48.601Z,20.9
2018-06-24T08:27:37.929Z,20.9
2018-06-24T08:28:28.705Z,20.9
2018-06-24T08:29:17.494Z,20.9
2018-06-24T08:30:08.892Z,20.9
2018-06-24T08:30:59.223Z,21
2018-06-24T08:31:49.553Z,21
2018-06-24T08:32:39.066Z,21
2018-06-24T08:33:28.832Z,21
2018-06-24T08:34:19.156Z,21
2018-06-24T08:35:08.464Z,21
2018-06-24T08:35:58.489Z,21
2018-06-24T08:36:49.649Z,21
2018-06-24T08:37:38.675Z,21
2018-06-24T08:38:29.225Z,21.1
2018-06-24T08:39:19.591Z,21.1
2018-06-24T08:40:09.625Z,21.1
2018-06-24T08:40:58.105Z,21.1
2018-06-24T08:41:50.014Z,21.1
2018-06-24T08:42:40.101Z,21.1
2018-06-24T08:43:29.588Z,21.1
2018-06-24T08:44:20.187Z,21.1
2018-06-24T08:45:10.295Z,21.1
2018-06-24T08:45:59.280Z,21
2018-06-24T08:46:49.921Z,21
2018-06-24T08:47:40.508Z,21
2018-06-24T08:48:29.180Z,20.9
2018-06-24T08:49:20.372Z,20.9
2018-06-24T08:50:10.199Z,20.9
2018-06-24T08:51:00.695Z,20.9
2018-06-24T08:51:49.264Z,20.9
2018-06-24T08:52:40.295Z,20.9
2018-06-24T08:53:30.071Z,20.9
2018-06-24T08:54:21.264Z,20.9
2018-06-24T08:55:10.856Z,20.9
2018-06-24T08:56:00.022Z,20.9
2018-06-24T08:56:51.170Z,20.9
2018-06-24T08:57:39.906Z,20.9
2018-06-24T08:58:30.177Z,20.9
2018-06-24T08:59:21.112Z,20.9
2018-06-24T09:00:10.669Z,20.9
2018-06-24T09:01:01.519Z,20.9
2018-06-24T09:01:51.335Z,20.9
2018-06-24T09:02:41.071Z,20.9
2018-06-24T09:03:30.469Z,20.9
2018-06-24T09:04:21.167Z,20.9
2018-06-24T09:05:11.812Z,20.9
2018-06-24T09:06:01.637Z,20.9
2018-06-24T09:06:50.312Z,20.9
2018-06-24T09:07:41.287Z,21
2018-06-24T09:08:32.097Z,21
2018-06-24T09:09:21.844Z,21
2018-06-24T09:10:12.177Z,21
2018-06-24T09:11:01.987Z,21
2018-06-24T09:11:51.737Z,21.1
2018-06-24T09:12:42.119Z,21
2018-06-24T09:13:31.619Z,21.1
2018-06-24T09:14:21.852Z,21.1
